createdAt,value
2018-10-21T00:00:50.761Z,95788.47
2018-10-21T00:03:20.255Z,95793.97
2018-10-21T00:05:48.905Z,95797.56
2018-10-21T00:08:17.569Z,95793.20
2018-10-21T00:10:46.280Z,95783.84
2018-10-21T00:13:15.197Z,95790.47
2018-10-21T00:15:43.966Z,95780.80
2018-10-21T00:18:12.605Z,95784.42
2018-10-21T00:20:41.335Z,95782.12
2018-10-21T00:23:09.961Z,95782.62
2018-10-21T00:25:38.657Z,95787.37
2018-10-21T00:28:07.611Z,95779.71
2018-10-21T00:30:36.672Z,95779.89
2018-10-21T00:33:05.976Z,95770.46
2018-10-21T00:35:35.009Z,95776.13
2018-10-21T00:38:03.683Z,95773.59
2018-10-21T00:40:32.315Z,95774.52
2018-10-21T00:43:00.975Z,95779.35
2018-10-21T00:45:30.333Z,95771.70
2018-10-21T00:47:59.062Z,95771.95
2018-10-21T00:50:27.788Z,95764.76
2018-10-21T00:52:56.453Z,95763.66
2018-10-21T00:55:25.415Z,95762.23
2018-10-21T00:57:54.049Z,95757.89
2018-10-21T01:00:22.781Z,95759.64
2018-10-21T01:02:51.434Z,95760.23
2018-10-21T01:05:20.130Z,95758.54
2018-10-21T01:07:48.836Z,95763.43
2018-10-21T01:10:17.462Z,95751.53
2018-10-21T01:12:46.153Z,95714.51
2018-10-21T01:15:14.860Z,95751.52
2018-10-21T01:17:43.695Z,95754.44
2018-10-21T01:20:13.149Z,95753.08
2018-10-21T01:22:42.590Z,95751.05
2018-10-21T01:25:11.679Z,95746.70
2018-10-21T01:27:41.363Z,95743.05
2018-10-21T01:30:11.361Z,95738.34
2018-10-21T01:32:40.004Z,95737.16
2018-10-21T01:35:09.167Z,95735.05
2018-10-21T01:37:38.155Z,95737.77
2018-10-21T01:40:45.603Z,95732.41
2018-10-21T01:43:15.948Z,95727.03
2018-10-21T01:45:44.955Z,95729.89
2018-10-21T01:48:15.285Z,95718.58
2018-10-21T01:50:44.205Z,95716.23
2018-10-21T01:53:14.458Z,95718.32
2018-10-21T01:55:43.472Z,95716.36
2018-10-21T01:58:12.166Z,95714.37
2018-10-21T02:00:41.681Z,95713.31
2018-10-21T02:03:10.477Z,95710.50
2018-10-21T02:05:39.799Z,95713.06
2018-10-21T02:08:09.768Z,95715.59
2018-10-21T02:10:38.444Z,95710.83
2018-10-21T02:13:07.114Z,95709.54
2018-10-21T02:15:35.851Z,95705.04
2018-10-21T02:18:04.629Z,95701.64
2018-10-21T02:20:33.675Z,95704.45
2018-10-21T02:23:02.633Z,95709.16
2018-10-21T02:25:31.273Z,95712.89
2018-10-21T02:27:59.914Z,95710.26
2018-10-21T02:30:29.615Z,95716.09
2018-10-21T02:32:58.829Z,95713.09
2018-10-21T02:35:27.525Z,95710.66
2018-10-21T02:37:56.690Z,95706.77
2018-10-21T02:41:37.218Z,95709.95
2018-10-21T02:44:07.154Z,95709.39
2018-10-21T02:46:36.432Z,95711.94
2018-10-21T02:49:06.039Z,95713.41
2018-10-21T02:51:34.753Z,95722.06
2018-10-21T02:54:03.464Z,95714.47
2018-10-21T02:56:32.179Z,95720.61
2018-10-21T02:59:00.812Z,95725.23
2018-10-21T03:01:29.578Z,95721.13
2018-10-21T03:03:58.228Z,95729.90
2018-10-21T03:06:27.200Z,95729.94
2018-10-21T03:08:55.892Z,95726.81
2018-10-21T03:11:24.682Z,95729.91
2018-10-21T03:13:53.427Z,95726.56
2018-10-21T03:16:22.065Z,95727.98
2018-10-21T03:18:50.726Z,95737.22
2018-10-21T03:21:19.480Z,95730.48
2018-10-21T03:23:48.130Z,95721.31
2018-10-21T03:26:16.813Z,95724.25
2018-10-21T03:28:45.453Z,95729.39
2018-10-21T03:31:14.143Z,95725.81
2018-10-21T03:33:43.030Z,95717.31
2018-10-21T03:36:11.541Z,95719.95
2018-10-21T03:38:40.271Z,95715.14
2018-10-21T03:41:08.946Z,95715.77
2018-10-21T03:43:37.918Z,95716.70
2018-10-21T03:46:06.699Z,95713.31
2018-10-21T03:48:35.373Z,95719.65
2018-10-21T03:51:04.033Z,95716.44
2018-10-21T03:53:33.028Z,95714.49
2018-10-21T03:56:01.701Z,95714.12
2018-10-21T03:58:30.341Z,95711.11
2018-10-21T04:00:59.076Z,95717.30
2018-10-21T04:03:27.762Z,95717.84
2018-10-21T04:05:56.737Z,95717.75
2018-10-21T04:08:25.463Z,95712.36
2018-10-21T04:10:54.118Z,95710.52
2018-10-21T04:13:22.753Z,95720.14
2018-10-21T04:15:51.429Z,95714.14
2018-10-21T04:18:20.188Z,95708.03
2018-10-21T04:20:48.800Z,95710.67
2018-10-21T04:23:17.490Z,95712.25
2018-10-21T04:25:46.144Z,95712.71
2018-10-21T04:28:15.120Z,95700.56
2018-10-21T04:30:44.144Z,95701.41
2018-10-21T04:33:46.042Z,95705.09
2018-10-21T04:36:22.731Z,95696.32
2018-10-21T04:40:03.200Z,95695.45
2018-10-21T04:42:31.965Z,95695.52
2018-10-21T04:45:01.129Z,95693.55
2018-10-21T04:47:30.221Z,95694.09
2018-10-21T04:49:58.878Z,95693.16
2018-10-21T04:52:28.695Z,95690.13
2018-10-21T04:55:01.538Z,95695.88
2018-10-21T04:57:30.311Z,95693.05
2018-10-21T04:59:58.974Z,95697.30
2018-10-21T05:02:28.060Z,95703.22
2018-10-21T05:04:56.698Z,95702.40
2018-10-21T05:07:25.479Z,95699.84
2018-10-21T05:09:54.173Z,95696.95
2018-10-21T05:12:22.815Z,95692.27
2018-10-21T05:14:51.486Z,95699.66
2018-10-21T05:17:20.133Z,95700.12
2018-10-21T05:19:48.797Z,95703.90
2018-10-21T05:22:17.618Z,95699.11
2018-10-21T05:24:46.268Z,95695.33
2018-10-21T05:27:14.911Z,95695.01
2018-10-21T05:29:43.501Z,95698.17
2018-10-21T05:32:12.174Z,95697.70
2018-10-21T05:34:40.858Z,95695.01
2018-10-21T05:37:09.823Z,95699.50
2018-10-21T05:39:38.529Z,95706.11
2018-10-21T05:42:07.184Z,95710.08
2018-10-21T05:44:35.837Z,95723.48
2018-10-21T05:47:04.519Z,95712.25
2018-10-21T05:49:33.201Z,95714.53
2018-10-21T05:52:01.853Z,95716.06
2018-10-21T05:54:30.516Z,95719.20
2018-10-21T05:56:59.177Z,95725.03
2018-10-21T05:59:27.843Z,95732.63
2018-10-21T06:01:56.548Z,95732.77
2018-10-21T06:04:25.138Z,95733.42
2018-10-21T06:06:53.841Z,95724.66
2018-10-21T06:09:22.479Z,95721.24
2018-10-21T06:11:51.140Z,95718.63
2018-10-21T06:14:19.765Z,95722.92
2018-10-21T06:16:52.763Z,95718.27
2018-10-21T06:19:24.990Z,95719.88
2018-10-21T06:21:54.169Z,95725.73
2018-10-21T06:24:22.828Z,95733.78
2018-10-21T06:26:53.208Z,95730.91
2018-10-21T06:29:21.918Z,95725.42
2018-10-21T06:31:50.572Z,95733.91
2018-10-21T06:34:19.234Z,95735.17
2018-10-21T06:36:47.908Z,95733.74
2018-10-21T06:39:16.630Z,95742.00
2018-10-21T06:41:45.352Z,95740.87
2018-10-21T06:44:14.086Z,95737.17
2018-10-21T06:46:42.761Z,95737.30
2018-10-21T06:49:11.566Z,95735.28
2018-10-21T06:51:40.260Z,95741.59
2018-10-21T06:54:08.912Z,95739.72
2018-10-21T06:56:37.661Z,95741.06
2018-10-21T06:59:06.608Z,95739.48
2018-10-21T07:01:35.233Z,95744.16
2018-10-21T07:04:03.939Z,95752.47
2018-10-21T07:06:33.699Z,95751.00
2018-10-21T07:09:05.306Z,95747.96
2018-10-21T07:11:34.089Z,95748.84
2018-10-21T07:14:02.778Z,95743.78
2018-10-21T07:16:31.909Z,95746.52
2018-10-21T07:19:01.126Z,95751.83
2018-10-21T07:21:29.745Z,95751.19
2018-10-21T07:23:58.449Z,95750.91
2018-10-21T07:26:27.272Z,95755.58
2018-10-21T07:28:55.964Z,95749.95
2018-10-21T07:31:24.721Z,95749.51
2018-10-21T07:33:53.897Z,95751.61
2018-10-21T07:36:22.989Z,95753.88
2018-10-21T07:38:51.666Z,95749.89
2018-10-21T07:41:20.392Z,95743.17
2018-10-21T07:43:48.996Z,95744.38
2018-10-21T07:46:17.761Z,95746.97
2018-10-21T07:48:46.353Z,95734.66
2018-10-21T07:51:14.992Z,95740.77
2018-10-21T07:53:43.634Z,95732.84
2018-10-21T07:56:12.322Z,95728.57
2018-10-21T07:58:41.012Z,95729.69
2018-10-21T08:01:09.773Z,95735.44
2018-10-21T08:03:38.397Z,95727.51
2018-10-21T08:06:37.878Z,95739.80
2018-10-21T08:09:08.750Z,95734.99
2018-10-21T08:11:37.426Z,95733.64
2018-10-21T08:14:06.264Z,95735.11
2018-10-21T08:16:34.918Z,95733.05
2018-10-21T08:19:03.954Z,95729.86
2018-10-21T08:21:32.680Z,95733.91
2018-10-21T08:24:01.392Z,95729.39
2018-10-21T08:26:30.019Z,95728.48
2018-10-21T08:28:58.944Z,95732.96
2018-10-21T08:31:27.674Z,95500.83
2018-10-21T08:33:56.384Z,95721.45
2018-10-21T08:36:25.065Z,95721.38
2018-10-21T08:38:54.060Z,95723.59
2018-10-21T08:41:23.094Z,95717.73
2018-10-21T08:43:51.777Z,95721.33
2018-10-21T08:46:20.556Z,95721.77
2018-10-21T08:48:49.192Z,95713.98
2018-10-21T08:51:17.872Z,95719.28
2018-10-21T08:53:46.676Z,95724.28
2018-10-21T08:56:15.610Z,95720.14
2018-10-21T08:58:44.303Z,95723.80
2018-10-21T09:01:13.087Z,95722.38
2018-10-21T09:03:41.997Z,95720.23
2018-10-21T09:06:10.627Z,95725.09
2018-10-21T09:08:39.278Z,95716.67
2018-10-21T09:11:08.025Z,95717.72
2018-10-21T09:13:37.023Z,95717.72
2018-10-21T09:16:05.881Z,95719.05
2018-10-21T09:18:34.949Z,95716.64
2018-10-21T09:21:03.891Z,95714.11
2018-10-21T09:23:32.671Z,95713.25
2018-10-21T09:26:01.354Z,95714.61
2018-10-21T09:28:30.341Z,95713.20
2018-10-21T09:30:59.127Z,95712.93
2018-10-21T09:33:27.969Z,95708.23
2018-10-21T09:35:56.702Z,95708.81
2018-10-21T09:38:25.411Z,95695.97
2018-10-21T09:40:54.284Z,95696.38
2018-10-21T09:43:23.067Z,95698.98
2018-10-21T09:45:51.779Z,95692.94
2018-10-21T09:48:20.773Z,95687.66
2018-10-21T09:50:49.534Z,95684.41
2018-10-21T09:53:18.266Z,95678.45
2018-10-21T09:55:46.947Z,95669.58
2018-10-21T09:58:15.753Z,95665.02
2018-10-21T10:00:49.676Z,95661.52
2018-10-21T10:03:18.330Z,95662.61
2018-10-21T10:05:47.323Z,95655.66
2018-10-21T10:08:16.075Z,95652.42
2018-10-21T10:10:44.792Z,95646.99
2018-10-21T10:13:13.553Z,95651.26
2018-10-21T10:15:42.423Z,95651.19
2018-10-21T10:18:12.097Z,95653.58
2018-10-21T10:20:40.847Z,95645.34
2018-10-21T10:23:09.576Z,95644.81
2018-10-21T10:25:38.286Z,95642.70
2018-10-21T10:28:07.588Z,95645.23
2018-10-21T10:30:36.234Z,95639.38
2018-10-21T10:33:04.980Z,95633.87
2018-10-21T10:35:33.929Z,95634.65
2018-10-21T10:38:02.603Z,95630.06
2018-10-21T10:40:31.250Z,95633.44
2018-10-21T10:43:00.043Z,95631.27
2018-10-21T10:45:28.758Z,95626.17
2018-10-21T10:47:57.421Z,95626.42
2018-10-21T10:50:26.079Z,95622.20
2018-10-21T10:52:54.860Z,95620.35
2018-10-21T10:55:24.608Z,95616.88
2018-10-21T10:57:53.334Z,95617.41
2018-10-21T11:00:22.046Z,95618.64
2018-10-21T11:02:50.715Z,95622.89
2018-10-21T11:05:19.464Z,95622.61
2018-10-21T11:07:48.182Z,95472.38
2018-10-21T11:10:16.962Z,95629.05
2018-10-21T11:12:46.120Z,95627.88
2018-10-21T11:15:15.207Z,95620.41
2018-10-21T11:17:44.278Z,95628.88
2018-10-21T11:20:13.013Z,95623.05
2018-10-21T11:22:41.854Z,95633.09
2018-10-21T11:25:10.587Z,95624.63
2018-10-21T11:27:39.370Z,95621.84
2018-10-21T11:30:09.421Z,95623.14
2018-10-21T11:32:38.187Z,95626.48
2018-10-21T11:35:07.326Z,95632.81
2018-10-21T11:37:36.152Z,95632.72
2018-10-21T11:40:04.955Z,95640.25
2018-10-21T11:42:33.791Z,95635.05
2018-10-21T11:45:02.643Z,95630.62
2018-10-21T11:47:31.322Z,95634.34
2018-10-21T11:50:00.092Z,95634.08
2018-10-21T11:52:28.887Z,95640.70
2018-10-21T11:54:57.617Z,95640.37
2018-10-21T11:57:26.407Z,95633.13
2018-10-21T11:59:56.146Z,95642.95
2018-10-21T12:02:24.860Z,95634.88
2018-10-21T12:04:53.624Z,95650.68
2018-10-21T12:07:22.351Z,95651.60
2018-10-21T12:09:51.226Z,95645.31
2018-10-21T12:12:19.951Z,95646.48
2018-10-21T12:14:48.643Z,95641.03
2018-10-21T12:17:17.344Z,95646.78
2018-10-21T12:19:46.139Z,95646.80
2018-10-21T12:22:14.844Z,95624.95
2018-10-21T12:24:43.561Z,95661.66
2018-10-21T12:27:12.272Z,95658.97
2018-10-21T12:29:40.960Z,95657.30
2018-10-21T12:32:09.590Z,95655.77
2018-10-21T12:34:38.282Z,95662.23
2018-10-21T12:37:07.074Z,95659.40
2018-10-21T12:39:35.798Z,95577.75
2018-10-21T12:42:04.585Z,95649.73
2018-10-21T12:44:33.260Z,95654.89
2018-10-21T12:47:01.952Z,95650.81
2018-10-21T12:49:30.627Z,95654.00
2018-10-21T12:51:59.380Z,95653.55
2018-10-21T12:54:28.184Z,95653.55
2018-10-21T12:56:56.840Z,95658.53
2018-10-21T12:59:25.523Z,95659.34
2018-10-21T13:01:54.184Z,95661.27
2018-10-21T13:04:23.114Z,95671.75
2018-10-21T13:06:51.902Z,95671.66
2018-10-21T13:09:20.579Z,95672.10
2018-10-21T13:11:49.288Z,95674.14
2018-10-21T13:14:18.001Z,95667.59
2018-10-21T13:16:46.708Z,95668.92
2018-10-21T13:19:15.514Z,95668.92
2018-10-21T13:21:44.241Z,95668.02
2018-10-21T13:24:12.921Z,95671.20
2018-10-21T13:26:41.590Z,95668.39
2018-10-21T13:29:10.254Z,95661.95
2018-10-21T13:31:38.946Z,95672.89
2018-10-21T13:34:07.723Z,95666.36
2018-10-21T13:36:36.391Z,95664.00
2018-10-21T13:39:07.808Z,95672.45
2018-10-21T13:41:36.502Z,95670.09
2018-10-21T13:44:05.267Z,95677.17
2018-10-21T13:46:33.921Z,95670.30
2018-10-21T13:49:02.630Z,95673.00
2018-10-21T13:51:31.330Z,95672.01
2018-10-21T13:54:00.430Z,95671.22
2018-10-21T13:56:29.267Z,95678.89
2018-10-21T13:58:57.927Z,95676.34
2018-10-21T14:01:27.105Z,95685.38
2018-10-21T14:03:55.815Z,95685.80
2018-10-21T14:06:24.816Z,95689.07
2018-10-21T14:08:53.576Z,95684.56
2018-10-21T14:11:22.478Z,95688.41
2018-10-21T14:13:51.150Z,95683.55
2018-10-21T14:16:19.940Z,95688.94
2018-10-21T14:18:48.622Z,95687.93
2018-10-21T14:21:17.350Z,95692.30
2018-10-21T14:23:46.055Z,95683.07
2018-10-21T14:26:14.739Z,95690.16
2018-10-21T14:28:43.441Z,95689.11
2018-10-21T14:31:12.086Z,95690.22
2018-10-21T14:33:40.794Z,95695.17
2018-10-21T14:36:09.580Z,95687.95
2018-10-21T14:38:38.689Z,95695.81
2018-10-21T14:41:07.330Z,95694.51
2018-10-21T14:43:36.279Z,95700.91
2018-10-21T14:46:05.260Z,95695.44
2018-10-21T14:48:33.850Z,95701.06
2018-10-21T14:51:02.704Z,95658.11
2018-10-21T14:53:31.473Z,95699.69
2018-10-21T14:56:00.180Z,95704.66
2018-10-21T14:58:28.971Z,95703.96
2018-10-21T15:00:57.636Z,95704.35
2018-10-21T15:03:26.378Z,95708.18
2018-10-21T15:05:55.159Z,95714.12
2018-10-21T15:08:23.912Z,95709.00
2018-10-21T15:10:52.677Z,95716.44
2018-10-21T15:13:23.035Z,95724.91
2018-10-21T15:15:51.700Z,95727.28
2018-10-21T15:18:21.351Z,95724.67
2018-10-21T15:20:50.163Z,95730.73
2018-10-21T15:23:19.029Z,95728.45
2018-10-21T15:25:47.866Z,95726.19
2018-10-21T15:28:16.661Z,95730.70
2018-10-21T15:30:45.299Z,95735.95
2018-10-21T15:33:20.738Z,95743.23
2018-10-21T15:35:53.442Z,95748.00
2018-10-21T15:38:22.152Z,95758.44
2018-10-21T15:40:51.202Z,95760.28
2018-10-21T15:43:19.953Z,95761.02
2018-10-21T15:45:48.802Z,95764.08
2018-10-21T15:48:17.426Z,95769.36
2018-10-21T15:50:46.370Z,95767.42
2018-10-21T15:53:14.958Z,95777.13
2018-10-21T15:55:43.659Z,95780.34
2018-10-21T15:58:12.351Z,95782.28
2018-10-21T16:00:41.086Z,95790.18
2018-10-21T16:03:09.764Z,95786.69
2018-10-21T16:05:38.441Z,95790.73
2018-10-21T16:08:07.653Z,95796.30
2018-10-21T16:10:36.598Z,95795.50
2018-10-21T16:13:06.556Z,95799.97
2018-10-21T16:15:35.294Z,95803.69
2018-10-21T16:18:04.093Z,95801.32
2018-10-21T16:20:33.668Z,95798.16
2018-10-21T16:23:02.371Z,95801.73
2018-10-21T16:25:31.074Z,95618.55
2018-10-21T16:28:00.557Z,95805.95
2018-10-21T16:30:29.235Z,95817.33
2018-10-21T16:32:57.998Z,95828.28
2018-10-21T16:35:26.650Z,95823.30
2018-10-21T16:37:55.308Z,95826.88
2018-10-21T16:40:24.037Z,95836.31
2018-10-21T16:42:52.750Z,95834.97
2018-10-21T16:45:21.535Z,95844.16
2018-10-21T16:47:50.607Z,95837.03
2018-10-21T16:50:19.391Z,95836.63
2018-10-21T16:52:48.249Z,95829.58
2018-10-21T16:55:17.705Z,95826.80
2018-10-21T16:57:47.436Z,95834.56
2018-10-21T17:00:19.969Z,95839.41
2018-10-21T17:02:48.697Z,95841.40
2018-10-21T17:05:17.471Z,95839.47
2018-10-21T17:07:46.157Z,95844.79
2018-10-21T17:10:15.131Z,95842.42
2018-10-21T17:12:43.742Z,95840.20
2018-10-21T17:15:13.344Z,95848.62
2018-10-21T17:17:42.856Z,95851.31
2018-10-21T17:20:14.503Z,95851.14
2018-10-21T17:22:43.802Z,95855.27
2018-10-21T17:25:14.124Z,95847.89
2018-10-21T17:27:43.256Z,95845.12
2018-10-21T17:30:18.991Z,95846.39
2018-10-21T17:32:47.947Z,95848.76
2018-10-21T17:35:16.636Z,95842.81
2018-10-21T17:37:45.384Z,95842.81
2018-10-21T17:40:14.288Z,95840.11
2018-10-21T17:42:43.060Z,95840.99
2018-10-21T17:45:13.940Z,95849.16
2018-10-21T17:47:42.688Z,95855.44
2018-10-21T17:50:13.136Z,95850.75
2018-10-21T17:52:43.144Z,95842.27
2018-10-21T17:55:12.155Z,95842.59
2018-10-21T17:57:41.430Z,95849.63
2018-10-21T18:00:14.072Z,95847.89
2018-10-21T18:02:42.875Z,95851.64
2018-10-21T18:05:14.136Z,95851.56
2018-10-21T18:07:43.153Z,95849.63
2018-10-21T18:10:12.549Z,95853.05
2018-10-21T18:12:41.526Z,95852.25
2018-10-21T18:15:11.388Z,95853.77
2018-10-21T18:17:40.677Z,95862.88
2018-10-21T18:20:11.058Z,95860.66
2018-10-21T18:22:39.839Z,95857.74
2018-10-21T18:25:09.726Z,95850.53
2018-10-21T18:27:38.624Z,95853.70
2018-10-21T18:30:11.913Z,95855.42
2018-10-21T18:32:41.798Z,95861.39
2018-10-21T18:35:12.615Z,95864.23
2018-10-21T18:37:41.974Z,95860.91
2018-10-21T18:40:11.778Z,95879.55
2018-10-21T18:42:40.892Z,95871.95
2018-10-21T18:45:11.516Z,95878.12
2018-10-21T18:47:40.648Z,95877.49
2018-10-21T18:50:11.431Z,95879.56
2018-10-21T18:52:40.355Z,95883.14
2018-10-21T18:55:09.814Z,95879.56
2018-10-21T18:57:38.606Z,95874.97
2018-10-21T19:00:16.859Z,95878.83
2018-10-21T19:02:45.650Z,95881.23
2018-10-21T19:05:14.891Z,95881.45
2018-10-21T19:07:43.712Z,95881.38
2018-10-21T19:10:13.904Z,95883.52
2018-10-21T19:12:42.628Z,95888.29
2018-10-21T19:15:12.545Z,95893.36
2018-10-21T19:17:42.267Z,95897.66
2018-10-21T19:20:13.256Z,95897.66
2018-10-21T19:22:42.770Z,95895.25
2018-10-21T19:25:12.760Z,95897.66
2018-10-21T19:27:41.632Z,95907.02
2018-10-21T19:30:14.318Z,95897.25
2018-10-21T19:32:43.437Z,95901.92
2018-10-21T19:35:13.362Z,95909.00
2018-10-21T19:37:42.182Z,95900.02
2018-10-21T19:40:13.194Z,95906.13
2018-10-21T19:42:42.452Z,95904.95
2018-10-21T19:45:12.154Z,95908.20
2018-10-21T19:47:41.242Z,95916.92
2018-10-21T19:50:11.769Z,95911.70
2018-10-21T19:52:41.388Z,95921.61
2018-10-21T19:55:10.603Z,95911.15
2018-10-21T19:57:39.363Z,95914.47
2018-10-21T20:00:14.329Z,95918.27
2018-10-21T20:02:43.274Z,95918.93
2018-10-21T20:05:11.954Z,95925.02
2018-10-21T20:07:40.798Z,95925.35
2018-10-21T20:10:11.305Z,95930.97
2018-10-21T20:12:39.982Z,95925.50
2018-10-21T20:15:09.582Z,95924.80
2018-10-21T20:17:38.841Z,95927.95
2018-10-21T20:20:09.364Z,95926.53
2018-10-21T20:22:38.370Z,95919.16
2018-10-21T20:25:07.974Z,95920.44
2018-10-21T20:27:36.966Z,95920.34
2018-10-21T20:30:10.736Z,95923.67
2018-10-21T20:32:39.478Z,95924.33
2018-10-21T20:35:08.878Z,95922.41
2018-10-21T20:37:37.598Z,95927.07
2018-10-21T20:40:07.413Z,95931.34
2018-10-21T20:42:36.389Z,95931.98
2018-10-21T20:45:05.468Z,95923.92
2018-10-21T20:47:34.132Z,95926.41
2018-10-21T20:50:02.820Z,95926.70
2018-10-21T20:52:31.775Z,95932.83
2018-10-21T20:55:00.856Z,95918.72
2018-10-21T20:57:29.909Z,95924.30
2018-10-21T20:59:59.006Z,95930.83
2018-10-21T21:02:28.657Z,95926.94
2018-10-21T21:04:57.393Z,95809.50
2018-10-21T21:07:26.072Z,95936.13
2018-10-21T21:09:54.840Z,95930.83
2018-10-21T21:12:23.627Z,95759.27
2018-10-21T21:14:52.288Z,95936.39
2018-10-21T21:17:21.122Z,95932.34
2018-10-21T21:19:50.248Z,95924.25
2018-10-21T21:22:19.115Z,95925.10
2018-10-21T21:24:47.776Z,95933.92
2018-10-21T21:27:16.531Z,95933.42
2018-10-21T21:29:45.387Z,95927.16
2018-10-21T21:32:14.044Z,95929.63
2018-10-21T21:34:42.845Z,95929.95
2018-10-21T21:37:11.666Z,95932.40
2018-10-21T21:39:40.471Z,95933.13
2018-10-21T21:42:09.279Z,95928.75
2018-10-21T21:44:37.978Z,95926.22
2018-10-21T21:47:07.209Z,95923.93
2018-10-21T21:49:35.912Z,95923.30
2018-10-21T21:52:04.682Z,95915.67
2018-10-21T21:54:33.401Z,95921.70
2018-10-21T21:57:02.139Z,95917.40
2018-10-21T21:59:30.840Z,95918.52
2018-10-21T22:01:59.597Z,95915.05
2018-10-21T22:04:28.402Z,95913.36
2018-10-21T22:06:57.161Z,95916.29
2018-10-21T22:09:25.892Z,95918.53
2018-10-21T22:11:54.584Z,95920.59
2018-10-21T22:14:23.307Z,95925.27
2018-10-21T22:16:52.083Z,95928.52
2018-10-21T22:19:20.785Z,95923.75
2018-10-21T22:21:49.461Z,95914.06
2018-10-21T22:24:18.328Z,95923.34
2018-10-21T22:26:46.992Z,95923.32
2018-10-21T22:29:15.781Z,95920.50
2018-10-21T22:31:44.632Z,95924.79
2018-10-21T22:34:13.399Z,95923.42
2018-10-21T22:36:42.154Z,95919.77
2018-10-21T22:39:10.903Z,95923.48
2018-10-21T22:41:39.673Z,95920.78
2018-10-21T22:44:08.402Z,95924.69
2018-10-21T22:46:37.288Z,95921.91
2018-10-21T22:49:06.286Z,95926.19
2018-10-21T22:51:35.065Z,95930.54
2018-10-21T22:54:03.784Z,95931.14
2018-10-21T22:56:32.479Z,95925.81
2018-10-21T22:59:01.219Z,95923.04
2018-10-21T23:01:29.972Z,95928.11
2018-10-21T23:03:58.804Z,95930.23
2018-10-21T23:06:27.553Z,95938.02
2018-10-21T23:08:56.551Z,95934.41
2018-10-21T23:11:25.238Z,95937.58
2018-10-21T23:13:53.944Z,95944.94
2018-10-21T23:16:22.670Z,95943.03
2018-10-21T23:18:55.816Z,95944.63
2018-10-21T23:21:24.565Z,95946.50
2018-10-21T23:23:53.480Z,95944.45
2018-10-21T23:26:22.170Z,95939.87
2018-10-21T23:28:51.205Z,95935.90
2018-10-21T23:31:19.969Z,95936.61
2018-10-21T23:33:48.817Z,95939.23
2018-10-21T23:36:17.576Z,95934.94
2018-10-21T23:38:46.269Z,95941.95
2018-10-21T23:41:15.046Z,95940.97
2018-10-21T23:43:43.720Z,95940.75
2018-10-21T23:46:12.475Z,95943.06
2018-10-21T23:48:41.254Z,95946.20
2018-10-21T23:51:09.989Z,95945.19
2018-10-21T23:53:38.666Z,95937.09
2018-10-21T23:56:07.630Z,95939.31
2018-10-21T23:58:36.330Z,95939.17
